FDX1214 KIND-KMSY
Flight info
| Callsign | FDX1214 |
|---|---|
| Flight time | N/A |
| Altitude | 38000 |
| Route | OOM5 PXV J29 MEM J35 SQS/N0468F390 J35 MCB TRSSH1 |
| Aircraft | MD11/H-SDE1E2E3FGHIJ2J3J4J5M1RWXY/LB1D1 |
Departure
| Time | 2026-05-04 21:48 |
|---|---|
| Airport | Indianapolis International Airport (KIND) |
Arrival
| Time | N/A |
|---|---|
| Airport | Louis Armstrong New Orleans International Airport (KMSY) |
| Time | Latitude | Longitude | Altitude | Speed | Heading |
|---|---|---|---|---|---|
| 2026-05-04 21:19 | 39.71073 | -86.28763 | 800 ft | 0 kts | 314° |
| 2026-05-04 21:37 | 39.71057 | -86.28742 | 800 ft | 4 kts | 314° |
| 2026-05-04 21:38 | 39.71039 | -86.28718 | 800 ft | 3 kts | 315° |
| 2026-05-04 21:38 | 39.71027 | -86.28703 | 800 ft | 4 kts | 6° |
| 2026-05-04 21:38 | 39.71013 | -86.28712 | 800 ft | 4 kts | 51° |
| 2026-05-04 21:38 | 39.70997 | -86.28739 | 800 ft | 4 kts | 46° |
| 2026-05-04 21:39 | 39.70989 | -86.28749 | 800 ft | 1 kts | 44° |
| 2026-05-04 21:42 | 39.70991 | -86.28746 | 800 ft | 4 kts | 45° |
| 2026-05-04 21:42 | 39.71077 | -86.28641 | 799 ft | 19 kts | 38° |
| 2026-05-04 21:43 | 39.71170 | -86.28634 | 799 ft | 0 kts | 329° |
| 2026-05-04 21:43 | 39.71170 | -86.28635 | 799 ft | 1 kts | 329° |
| 2026-05-04 21:43 | 39.71187 | -86.28647 | 799 ft | 1 kts | 329° |
| 2026-05-04 21:43 | 39.71203 | -86.28654 | 800 ft | 6 kts | 346° |
| 2026-05-04 21:44 | 39.71269 | -86.28629 | 800 ft | 17 kts | 28° |
| 2026-05-04 21:44 | 39.71430 | -86.28458 | 796 ft | 32 kts | 44° |
| 2026-05-04 21:44 | 39.71570 | -86.28280 | 794 ft | 25 kts | 45° |
| 2026-05-04 21:44 | 39.71653 | -86.28113 | 796 ft | 19 kts | 65° |
| 2026-05-04 21:45 | 39.71677 | -86.28054 | 796 ft | 0 kts | 59° |
| 2026-05-04 21:45 | 39.71690 | -86.28029 | 796 ft | 9 kts | 53° |
| 2026-05-04 21:45 | 39.71768 | -86.27921 | 797 ft | 22 kts | 45° |
| 2026-05-04 21:45 | 39.71856 | -86.27840 | 799 ft | 8 kts | 3° |
| 2026-05-04 21:46 | 39.71880 | -86.27853 | 799 ft | 0 kts | 327° |
| 2026-05-04 21:46 | 39.71902 | -86.27878 | 799 ft | 16 kts | 317° |
| 2026-05-04 21:46 | 39.71914 | -86.28042 | 796 ft | 24 kts | 230° |
| 2026-05-04 21:46 | 39.71857 | -86.28106 | 794 ft | 0 kts | 206° |
| 2026-05-04 21:47 | 39.71853 | -86.28110 | 794 ft | 9 kts | 212° |
| 2026-05-04 21:48 | 39.71713 | -86.28287 | 792 ft | 78 kts | 225° |
| 2026-05-04 21:48 | 39.71098 | -86.29076 | 808 ft | 164 kts | 225° |
| 2026-05-04 21:48 | 39.70219 | -86.30224 | 1423 ft | 188 kts | 225° |
| 2026-05-04 21:48 | 39.69296 | -86.31390 | 2594 ft | 173 kts | 223° |
| 2026-05-04 21:49 | 39.68465 | -86.32363 | 4147 ft | 154 kts | 220° |
| 2026-05-04 21:49 | 39.67600 | -86.33385 | 4758 ft | 188 kts | 223° |
| 2026-05-04 21:49 | 39.66570 | -86.34677 | 4933 ft | 222 kts | 224° |
| 2026-05-04 21:49 | 39.65409 | -86.36132 | 5049 ft | 239 kts | 224° |
| 2026-05-04 21:50 | 39.64128 | -86.37267 | 6056 ft | 194 kts | 199° |
| 2026-05-04 21:50 | 39.62929 | -86.37712 | 7649 ft | 177 kts | 196° |
| 2026-05-04 21:50 | 39.61626 | -86.38190 | 8251 ft | 206 kts | 198° |
| 2026-05-04 21:50 | 39.60236 | -86.38745 | 9212 ft | 212 kts | 199° |
| 2026-05-04 21:51 | 39.58820 | -86.39346 | 10168 ft | 216 kts | 199° |
| 2026-05-04 21:51 | 39.57386 | -86.39984 | 11093 ft | 220 kts | 200° |
| 2026-05-04 21:51 | 39.55925 | -86.40660 | 11849 ft | 230 kts | 200° |
| 2026-05-04 21:51 | 39.54418 | -86.41373 | 12206 ft | 228 kts | 201° |
| 2026-05-04 21:52 | 39.52934 | -86.42090 | 12579 ft | 228 kts | 201° |
| 2026-05-04 21:52 | 39.50958 | -86.43058 | 13416 ft | 228 kts | 201° |
| 2026-05-04 21:52 | 39.49948 | -86.43557 | 13952 ft | 231 kts | 201° |
| 2026-05-04 21:52 | 39.48440 | -86.44307 | 14710 ft | 234 kts | 202° |